Time;durP1;ratioP1;P1;durP2;ratioP2;P2;SDS_P1;SDS_P2;PMS_P1;PMS_P2;Temp;Humidity;BMP_temperature;BMP_pressure;BME280_temperature;BME280_humidity;BME280_pressure;Samples;Min_cycle;Max_cycle;Signal;HPM_P1;HPM_P2
2021/07/17 06:56:40;;;;;;;69.00;24.50;;;17.90;99.90;;;;;;5927821;23;21264;-96
2021/07/17 06:59:08;;;;;;;156.93;78.63;;;18.10;99.90;;;;;;4845217;29;20443;-96
2021/07/17 07:01:35;;;;;;;28.13;18.00;;;18.30;99.90;;;;;;4846494;29;20436;-96
2021/07/17 07:04:03;;;;;;;29.38;17.83;;;18.30;99.90;;;;;;4845944;29;20518;-96
2021/07/17 07:06:30;;;;;;;24.48;17.88;;;18.30;99.90;;;;;;4849976;29;20422;-96
2021/07/17 07:08:57;;;;;;;27.15;17.25;;;18.40;99.90;;;;;;4868042;29;20450;-96
2021/07/17 07:11:24;;;;;;;27.50;17.33;;;18.40;99.90;;;;;;4857327;29;20428;-95
2021/07/17 07:13:52;;;;;;;26.70;17.27;;;18.40;99.90;;;;;;4844755;29;20446;-96
2021/07/17 07:16:19;;;;;;;26.98;17.17;;;18.40;99.90;;;;;;4845123;29;20535;-96
2021/07/17 07:18:46;;;;;;;39.72;17.45;;;18.50;99.90;;;;;;4846402;29;20432;-95
2021/07/17 07:21:13;;;;;;;139.00;27.08;;;18.60;99.90;;;;;;4846426;29;20474;-96
2021/07/17 07:23:40;;;;;;;23.58;16.92;;;18.60;99.90;;;;;;4845593;29;20931;-96
2021/07/17 07:26:08;;;;;;;26.05;16.10;;;18.70;99.90;;;;;;4834560;29;20440;-96
2021/07/17 07:28:35;;;;;;;26.88;16.05;;;18.90;99.90;;;;;;4846916;29;20492;-95
2021/07/17 07:31:02;;;;;;;26.15;15.82;;;18.80;99.90;;;;;;4844875;29;20439;-96
2021/07/17 07:33:29;;;;;;;21.57;13.90;;;18.90;99.90;;;;;;4844775;29;20847;-95
2021/07/17 07:35:56;;;;;;;23.30;13.85;;;18.80;99.90;;;;;;4845092;29;20448;-94
2021/07/17 07:38:23;;;;;;;38.00;17.48;;;18.80;99.90;;;;;;4844789;29;20440;-96
2021/07/17 07:40:51;;;;;;;36.75;12.23;;;18.80;99.90;;;;;;4844844;29;20440;-95
2021/07/17 07:43:18;;;;;;;11.67;6.70;;;19.00;99.90;;;;;;4845016;29;20431;-96
2021/07/17 07:45:45;;;;;;;12.27;7.03;;;19.00;99.90;;;;;;4851634;29;20921;-96
2021/07/17 07:48:12;;;;;;;18.23;9.40;;;18.90;99.90;;;;;;4847339;29;20435;-95
2021/07/17 07:50:39;;;;;;;18.02;9.13;;;18.90;99.90;;;;;;4845799;29;20504;-96
2021/07/17 07:53:06;;;;;;;14.88;8.93;;;19.00;99.90;;;;;;4847049;29;20436;-96
2021/07/17 07:55:33;;;;;;;16.55;9.73;;;19.30;99.90;;;;;;4844331;29;20531;-96
2021/07/17 07:58:00;;;;;;;16.20;8.37;;;19.40;99.90;;;;;;4856614;29;20790;-96
2021/07/17 08:00:28;;;;;;;15.10;8.40;;;19.60;99.90;;;;;;4866944;29;20440;-96
2021/07/17 08:02:55;;;;;;;15.88;8.68;;;19.90;99.90;;;;;;4867081;29;20920;-96
2021/07/17 08:05:24;;;;;;;17.57;8.57;;;20.10;99.90;;;;;;4867222;29;20429;-96
2021/07/17 08:07:53;;;;;;;16.02;8.00;;;20.30;99.90;;;;;;4867506;29;20948;-96
2021/07/17 08:10:21;;;;;;;12.70;7.57;;;20.30;99.90;;;;;;4866756;29;20932;-96
2021/07/17 08:12:50;;;;;;;12.70;8.00;;;20.40;99.90;;;;;;4867346;29;20474;-96
2021/07/17 08:15:17;;;;;;;12.50;7.85;;;20.30;99.90;;;;;;4867395;29;20448;-96
2021/07/17 08:17:47;;;;;;;14.40;8.70;;;20.10;99.90;;;;;;4866886;29;20436;-96
2021/07/17 08:20:14;;;;;;;19.80;12.18;;;19.90;99.90;;;;;;4868752;29;20436;-96
2021/07/17 08:22:42;;;;;;;17.50;11.53;;;19.80;99.90;;;;;;4867571;29;20511;-96
2021/07/17 08:25:10;;;;;;;20.40;12.35;;;19.70;99.90;;;;;;4867051;29;20475;-96
2021/07/17 08:27:37;;;;;;;17.70;12.45;;;19.60;99.90;;;;;;4869078;29;20481;-96
2021/07/17 08:30:06;;;;;;;34.03;13.05;;;19.70;99.90;;;;;;4866527;29;20439;-96
2021/07/17 08:32:49;;;;;;;23.43;12.27;;;19.50;99.90;;;;;;4868481;29;20471;-95
2021/07/17 08:35:16;;;;;;;20.85;12.68;;;19.70;99.90;;;;;;4866076;29;20525;-96
2021/07/17 08:37:43;;;;;;;127.83;15.77;;;19.70;99.90;;;;;;4866288;29;20443;-96
2021/07/17 08:40:11;;;;;;;42.72;13.75;;;19.60;99.90;;;;;;4867801;29;20439;-96
2021/07/17 08:42:44;;;;;;;22.13;13.07;;;19.60;99.90;;;;;;4866551;29;20447;-96
2021/07/17 08:45:12;;;;;;;20.27;13.23;;;19.60;99.90;;;;;;4866482;29;20424;-96
2021/07/17 08:47:42;;;;;;;18.67;13.93;;;19.60;99.90;;;;;;4865576;29;20462;-96
2021/07/17 08:50:16;;;;;;;16.73;13.27;;;19.50;99.90;;;;;;4876189;29;20440;-96
2021/07/17 08:52:43;;;;;;;22.02;13.88;;;19.80;99.90;;;;;;4886644;29;20441;-96
2021/07/17 08:55:12;;;;;;;21.48;14.27;;;19.70;99.90;;;;;;4872728;29;20492;-96
2021/07/17 08:57:41;;;;;;;20.87;13.30;;;19.60;99.90;;;;;;4869469;29;20930;-96
2021/07/17 09:00:13;;;;;;;132.53;17.00;;;19.70;99.90;;;;;;4869150;29;20443;-96
2021/07/17 09:02:53;;;;;;;25.83;13.30;;;19.50;99.90;;;;;;4868470;29;20443;-96
2021/07/17 09:05:22;;;;;;;21.40;14.10;;;19.50;99.90;;;;;;4868481;29;20464;-96
2021/07/17 09:07:50;;;;;;;22.75;13.95;;;19.70;99.90;;;;;;4868919;29;20441;-96
2021/07/17 09:10:30;;;;;;;18.38;12.57;;;20.00;99.90;;;;;;4866822;29;20511;-96
2021/07/17 09:13:23;;;;;;;19.42;12.23;;;20.40;99.90;;;;;;4867273;29;20750;-96
2021/07/17 09:15:59;;;;;;;17.93;12.07;;;20.90;99.90;;;;;;4867860;29;20444;-96
2021/07/17 09:18:32;;;;;;;20.35;12.50;;;21.00;99.90;;;;;;4868375;29;20473;-96
2021/07/17 09:21:19;;;;;;;17.77;12.45;;;21.00;99.90;;;;;;4866517;29;20515;-96
2021/07/17 09:23:52;;;;;;;17.63;12.48;;;21.00;99.90;;;;;;4866942;29;20442;-96
2021/07/17 09:26:22;;;;;;;16.20;12.00;;;21.10;99.90;;;;;;4865667;29;20475;-96
2021/07/17 09:29:06;;;;;;;19.08;12.23;;;21.10;99.90;;;;;;4866227;29;20805;-96
2021/07/17 09:31:55;;;;;;;19.17;12.30;;;21.00;99.90;;;;;;4865920;29;20441;-96
2021/07/17 12:31:32;;;;;;;9.67;5.83;;;24.90;99.90;;;;;;5829191;23;21691;-96
2021/07/17 12:34:16;;;;;;;9.43;6.10;;;25.60;99.90;;;;;;4884631;23;20452;-96
2021/07/17 13:15:19;;;;;;;8.27;4.97;;;25.20;99.90;;;;;;5965277;23;20374;-96
2021/07/17 17:47:23;;;;;;;37.50;16.35;;;18.90;99.90;;;;;;5980641;23;20425;31
